Time;durP1;ratioP1;P1;durP2;ratioP2;P2;SDS_P1;SDS_P2;PMS_P1;PMS_P2;Temp;Humidity;BMP_temperature;BMP_pressure;BME280_temperature;BME280_humidity;BME280_pressure;Samples;Min_cycle;Max_cycle;Signal;HPM_P1;HPM_P2
2022/04/24 00:04:12;;;;;;;1.50;0.93;;;14.20;60.90;;;;;;20652379;28;20473;-76
2022/04/24 00:14:12;;;;;;;1.60;1.20;;;14.10;60.90;;;;;;20634856;28;20465;-76
2022/04/24 00:24:13;;;;;;;1.50;1.00;;;14.20;61.00;;;;;;20633045;28;20039;-76
2022/04/24 00:34:14;;;;;;;0.68;0.60;;;14.10;60.90;;;;;;20634110;28;20340;-76
2022/04/24 00:44:15;;;;;;;1.25;1.10;;;14.10;60.90;;;;;;20615447;28;20088;-75
2022/04/24 00:54:39;;;;;;;2.10;1.15;;;14.10;60.90;;;;;;20637600;28;20049;-76
2022/04/24 01:04:39;;;;;;;1.00;0.82;;;14.10;60.90;;;;;;20631580;28;20034;-76
2022/04/24 01:14:40;;;;;;;1.63;0.82;;;14.10;60.90;;;;;;20631061;28;20492;-76
2022/04/24 01:24:40;;;;;;;1.25;0.80;;;14.10;60.90;;;;;;20630585;28;20074;-76
2022/04/24 01:34:41;;;;;;;1.45;1.00;;;14.00;60.80;;;;;;20664449;28;20457;-76
2022/04/24 01:44:41;;;;;;;1.40;0.90;;;14.00;60.80;;;;;;20631224;28;20433;-75
2022/04/24 01:54:42;;;;;;;1.65;1.02;;;14.00;60.80;;;;;;20639921;28;20054;-80
2022/04/24 02:04:42;;;;;;;1.90;1.20;;;14.00;60.90;;;;;;20643350;28;20047;-77
2022/04/24 02:14:43;;;;;;;1.52;1.00;;;14.00;60.80;;;;;;20644225;28;20130;-76
2022/04/24 02:24:44;;;;;;;1.95;1.30;;;14.00;60.90;;;;;;20610326;28;20508;-77
2022/04/24 02:34:44;;;;;;;1.30;0.90;;;14.00;60.90;;;;;;20995547;22;20058;-77
2022/04/24 02:44:45;;;;;;;2.00;1.52;;;14.00;60.90;;;;;;20658382;28;20125;-76
2022/04/24 02:54:45;;;;;;;2.38;1.17;;;14.00;60.90;;;;;;20657969;28;20038;-75
2022/04/24 03:04:46;;;;;;;2.10;1.25;;;13.90;60.80;;;;;;20671177;28;20484;-78
2022/04/24 03:14:47;;;;;;;2.20;1.20;;;13.90;60.80;;;;;;20672410;28;20077;-77
2022/04/24 03:24:47;;;;;;;0.82;0.80;;;13.90;60.80;;;;;;20671291;28;20376;-76
2022/04/24 03:34:48;;;;;;;2.28;1.25;;;13.90;60.80;;;;;;20654841;28;20050;-76
2022/04/24 03:44:49;;;;;;;2.20;1.30;;;13.90;60.90;;;;;;20653986;28;20042;-76
2022/04/24 03:54:49;;;;;;;2.15;1.08;;;13.90;60.90;;;;;;20669281;28;20117;-77
2022/04/24 04:04:50;;;;;;;1.75;1.00;;;13.90;60.90;;;;;;20669642;28;20092;-76
2022/04/24 04:14:51;;;;;;;3.17;1.42;;;13.80;60.90;;;;;;20668002;28;20026;-76
2022/04/24 04:24:52;;;;;;;2.58;1.33;;;13.80;60.90;;;;;;20666228;28;20086;-76
2022/04/24 04:34:53;;;;;;;1.60;0.80;;;13.80;60.90;;;;;;20650621;28;20050;-76
2022/04/24 04:44:56;;;;;;;2.65;1.30;;;13.80;61.00;;;;;;20633696;28;20030;-76
2022/04/24 04:54:56;;;;;;;4.10;1.52;;;13.80;60.90;;;;;;20650998;28;20035;-77
2022/04/24 05:04:59;;;;;;;5.15;1.00;;;13.80;61.00;;;;;;20649299;28;20038;-76
2022/04/24 05:15:03;;;;;;;1.33;1.05;;;13.80;61.00;;;;;;20649852;28;20476;-76
2022/04/24 05:25:05;;;;;;;1.80;1.15;;;13.80;61.10;;;;;;20633590;28;20035;-81
2022/04/24 05:35:21;;;;;;;2.45;1.05;;;13.80;61.10;;;;;;20647897;28;20073;-76
2022/04/24 05:45:22;;;;;;;1.57;1.20;;;13.80;61.00;;;;;;20661825;28;20109;-77
2022/04/24 05:55:23;;;;;;;1.35;1.00;;;13.70;61.00;;;;;;20661981;28;20030;-77
2022/04/24 06:05:24;;;;;;;2.25;1.30;;;13.80;61.00;;;;;;20660704;28;20392;-76
2022/04/24 06:15:25;;;;;;;2.28;1.10;;;13.80;61.00;;;;;;20677269;28;20086;-76
2022/04/24 06:25:27;;;;;;;1.40;0.80;;;13.80;61.00;;;;;;20642577;28;20038;-75
2022/04/24 06:35:28;;;;;;;1.70;0.98;;;13.70;61.00;;;;;;20657678;28;20034;-76
2022/04/24 06:45:39;;;;;;;1.85;0.90;;;13.70;60.90;;;;;;20658254;28;20035;-76
2022/04/24 06:55:41;;;;;;;1.45;0.80;;;13.70;60.90;;;;;;20637696;28;20513;-73
2022/04/24 07:05:44;;;;;;;1.58;0.85;;;13.70;61.00;;;;;;20631352;28;20035;-73
2022/04/24 07:15:45;;;;;;;8.52;1.15;;;13.80;61.00;;;;;;20564953;28;20031;-81
2022/04/24 07:25:46;;;;;;;3.70;1.20;;;13.80;60.80;;;;;;20554473;28;20081;-80
2022/04/24 07:35:47;;;;;;;1.77;0.93;;;13.80;60.70;;;;;;20570211;28;20302;-78
2022/04/24 07:45:48;;;;;;;2.25;1.00;;;13.80;60.70;;;;;;20586393;28;20058;-76
2022/04/24 07:55:49;;;;;;;1.42;0.88;;;13.80;60.70;;;;;;20566195;28;20432;-78
2022/04/24 08:05:50;;;;;;;1.95;0.85;;;13.80;60.80;;;;;;20581964;28;20054;-75
2022/04/24 08:15:52;;;;;;;1.00;0.75;;;13.80;60.70;;;;;;20562556;28;20070;-76
2022/04/24 08:25:53;;;;;;;3.50;1.15;;;13.80;60.80;;;;;;20560247;28;20047;-75
2022/04/24 08:35:53;;;;;;;1.30;1.00;;;13.90;61.50;;;;;;20581471;28;20035;-74
2022/04/24 08:45:54;;;;;;;0.90;0.60;;;13.80;60.80;;;;;;20527136;28;20058;-75
2022/04/24 08:55:56;;;;;;;1.55;0.70;;;13.90;60.80;;;;;;20558776;28;20357;-76
2022/04/24 09:05:56;;;;;;;1.55;0.57;;;13.90;60.80;;;;;;20551991;28;20469;-78
2022/04/24 09:15:58;;;;;;;1.20;0.70;;;13.90;60.80;;;;;;20563933;28;20038;-75
2022/04/24 09:25:58;;;;;;;0.82;0.55;;;13.90;60.80;;;;;;20558205;28;20389;-75
2022/04/24 09:35:59;;;;;;;1.52;0.93;;;13.90;60.80;;;;;;20542692;28;20465;-75
2022/04/24 09:46:00;;;;;;;1.52;0.60;;;13.90;60.80;;;;;;20556360;28;20053;-76
2022/04/24 09:56:02;;;;;;;0.82;0.52;;;13.90;60.80;;;;;;20573541;28;20101;-76
2022/04/24 10:06:04;;;;;;;1.67;0.80;;;13.90;60.80;;;;;;20540569;28;20050;-76
2022/04/24 10:16:21;;;;;;;1.13;0.77;;;13.90;60.80;;;;;;20573046;28;20086;-75
2022/04/24 10:26:22;;;;;;;1.27;0.85;;;13.90;60.80;;;;;;20556615;28;20042;-76
2022/04/24 10:36:23;;;;;;;1.25;0.85;;;13.90;60.80;;;;;;20568564;28;20101;-76
2022/04/24 10:46:32;;;;;;;1.23;0.90;;;13.90;60.80;;;;;;20566794;28;20098;-74
2022/04/24 10:56:33;;;;;;;2.03;1.00;;;14.00;60.90;;;;;;20552904;28;20448;-79
2022/04/24 11:06:33;;;;;;;3.83;1.10;;;14.00;60.90;;;;;;20519853;28;20141;-77
2022/04/24 11:16:34;;;;;;;2.00;0.85;;;14.00;61.00;;;;;;20566750;28;20027;-77
2022/04/24 11:26:35;;;;;;;1.30;0.80;;;14.00;61.00;;;;;;20580456;28;20500;-75
2022/04/24 11:36:35;;;;;;;2.43;1.00;;;14.00;61.00;;;;;;20568084;28;20038;-74
2022/04/24 11:56:55;;;;;;;0.93;0.60;;;14.00;61.70;;;;;;20571347;28;20042;-77
2022/04/24 12:07:05;;;;;;;1.13;0.85;;;14.00;61.00;;;;;;20597981;28;20043;-75
2022/04/24 12:17:08;;;;;;;3.70;1.00;;;14.00;61.10;;;;;;20500831;29;20043;-75
2022/04/24 12:27:09;;;;;;;2.20;1.00;;;14.00;61.00;;;;;;20539435;28;20035;-74
2022/04/24 12:37:15;;;;;;;1.40;0.95;;;14.10;61.10;;;;;;20550930;28;20051;-75
2022/04/24 12:47:15;;;;;;;1.48;0.98;;;14.10;61.10;;;;;;20550330;28;20133;-74
2022/04/24 12:57:16;;;;;;;2.28;1.50;;;14.10;61.10;;;;;;20560462;28;20133;-70
2022/04/24 13:07:17;;;;;;;1.70;1.23;;;14.20;61.10;;;;;;20583442;28;20097;-73
2022/04/24 13:27:37;;;;;;;3.15;1.30;;;14.10;61.10;;;;;;20564661;28;20130;-76
2022/04/24 13:47:57;;;;;;;2.60;1.05;;;14.20;61.00;;;;;;20551998;28;20042;-74
2022/04/24 13:57:57;;;;;;;4.13;1.10;;;14.20;61.10;;;;;;20570114;28;20134;-75
2022/04/24 14:07:58;;;;;;;3.20;1.40;;;14.30;61.10;;;;;;20571991;28;20437;-74
2022/04/24 14:17:59;;;;;;;3.83;1.47;;;14.30;61.10;;;;;;20587403;28;20074;-77
2022/04/24 14:28:00;;;;;;;2.75;1.60;;;14.30;61.20;;;;;;20550618;28;20298;-77
2022/04/24 14:38:01;;;;;;;2.03;1.30;;;14.30;61.20;;;;;;20552886;28;20078;-75
2022/04/24 14:58:21;;;;;;;2.10;1.33;;;14.40;61.10;;;;;;20571572;28;20397;-75
2022/04/24 15:08:21;;;;;;;3.38;0.90;;;14.50;61.10;;;;;;20568701;28;20054;-75
2022/04/24 15:18:22;;;;;;;5.38;1.27;;;14.50;61.00;;;;;;20568792;28;20267;-74
2022/04/24 15:28:23;;;;;;;1.33;0.90;;;14.50;61.00;;;;;;20633042;28;20121;-74
2022/04/24 15:38:23;;;;;;;1.75;1.02;;;14.50;61.00;;;;;;20614935;28;20294;-75
2022/04/24 15:48:25;;;;;;;2.25;0.95;;;14.50;61.10;;;;;;20548307;28;20130;-71
2022/04/24 15:58:26;;;;;;;3.00;1.48;;;14.50;61.00;;;;;;20561641;28;20037;-75
2022/04/24 16:08:28;;;;;;;3.92;1.50;;;14.50;61.10;;;;;;20518545;28;20149;-74
2022/04/24 16:18:31;;;;;;;5.45;1.30;;;14.60;61.20;;;;;;20532703;28;20769;-79
2022/04/24 16:28:31;;;;;;;8.95;2.28;;;14.50;61.30;;;;;;20489131;28;20031;-79
2022/04/24 16:38:32;;;;;;;4.67;1.60;;;14.50;61.50;;;;;;20536646;28;20039;-79
2022/04/24 16:48:33;;;;;;;9.20;2.83;;;14.50;61.60;;;;;;20542196;28;20348;-76
2022/04/24 16:58:46;;;;;;;4.53;1.50;;;14.50;61.70;;;;;;20563543;28;20121;-75
2022/04/24 17:08:46;;;;;;;5.60;1.80;;;14.50;61.80;;;;;;20559107;28;20073;-78
2022/04/24 17:18:50;;;;;;;2.70;1.40;;;14.50;61.90;;;;;;20560471;28;20109;-78
2022/04/24 17:28:52;;;;;;;1.75;1.10;;;14.40;61.80;;;;;;20575394;28;20045;-74
2022/04/24 17:38:55;;;;;;;3.95;1.42;;;14.50;61.90;;;;;;20572367;28;20058;-72
2022/04/24 17:48:55;;;;;;;3.42;1.08;;;14.40;61.80;;;;;;20569215;28;20089;-73
2022/04/24 17:58:58;;;;;;;2.37;1.17;;;14.40;61.70;;;;;;20551298;28;20458;-74
2022/04/24 18:08:58;;;;;;;1.13;0.93;;;14.40;61.80;;;;;;20544969;28;20302;-74
2022/04/24 18:19:02;;;;;;;2.30;1.30;;;14.40;61.90;;;;;;20663648;28;20117;-74
2022/04/24 18:29:03;;;;;;;2.20;1.40;;;14.30;61.90;;;;;;20607255;28;20046;-75
2022/04/24 18:39:04;;;;;;;2.63;1.30;;;14.30;62.00;;;;;;20620210;28;327249;-75
2022/04/24 18:49:05;;;;;;;3.95;1.27;;;14.30;62.00;;;;;;20486398;29;20140;-73
2022/04/24 18:59:07;;;;;;;2.55;1.10;;;14.30;62.00;;;;;;20545129;28;20030;-75
2022/04/24 19:09:07;;;;;;;6.72;1.88;;;14.30;62.10;;;;;;20550167;28;20058;-74
2022/04/24 19:19:08;;;;;;;2.13;1.10;;;14.20;62.10;;;;;;20534765;28;20653;-74
2022/04/24 19:29:09;;;;;;;2.88;1.10;;;14.20;62.10;;;;;;20564539;28;20481;-73
2022/04/24 19:39:10;;;;;;;4.18;1.50;;;14.20;62.10;;;;;;20548916;28;20050;-74
2022/04/24 19:49:21;;;;;;;1.98;0.95;;;14.20;62.20;;;;;;20563032;28;20038;-74
2022/04/24 19:59:21;;;;;;;1.75;1.23;;;14.10;62.20;;;;;;20534879;28;20054;-73
2022/04/24 20:09:23;;;;;;;1.40;1.02;;;14.20;62.20;;;;;;20526919;28;20125;-73
2022/04/24 20:19:24;;;;;;;3.45;1.10;;;14.10;62.20;;;;;;20561042;28;20023;-74
2022/04/24 20:29:24;;;;;;;1.53;0.90;;;14.10;62.30;;;;;;20561945;28;20046;-74
2022/04/24 20:39:41;;;;;;;1.60;0.95;;;14.10;62.30;;;;;;20562179;28;20302;-74
2022/04/24 20:49:41;;;;;;;2.40;1.20;;;14.10;62.30;;;;;;20563116;28;20074;-73
2022/04/24 20:59:42;;;;;;;2.10;1.10;;;14.10;62.40;;;;;;20560526;28;20840;-73
2022/04/24 21:09:43;;;;;;;1.55;1.05;;;14.10;62.40;;;;;;20544143;28;20129;-74
2022/04/24 21:19:44;;;;;;;3.47;1.13;;;14.10;63.10;;;;;;20559476;28;20047;-73
2022/04/24 21:29:44;;;;;;;2.13;1.27;;;14.00;62.40;;;;;;20544859;28;20142;-73
2022/04/24 21:39:45;;;;;;;1.73;1.17;;;14.00;62.40;;;;;;20559791;28;20031;-73
2022/04/24 21:49:46;;;;;;;1.38;0.90;;;14.10;62.50;;;;;;20558686;28;20051;-75
2022/04/24 21:59:46;;;;;;;1.92;0.88;;;14.00;62.40;;;;;;20559918;28;20035;-74
2022/04/24 22:09:47;;;;;;;1.67;1.30;;;14.00;62.40;;;;;;20564861;28;20049;-74
2022/04/24 22:19:48;;;;;;;2.45;1.30;;;14.00;62.50;;;;;;20572274;28;20113;-74
2022/04/24 22:29:49;;;;;;;2.72;0.95;;;14.00;63.20;;;;;;20571639;28;20046;-74
2022/04/24 22:39:49;;;;;;;1.83;0.95;;;13.90;62.40;;;;;;20570302;28;20438;-74
2022/04/24 22:49:50;;;;;;;1.90;0.90;;;14.00;62.50;;;;;;20553644;28;20137;-73
2022/04/24 22:59:51;;;;;;;2.72;1.10;;;13.90;62.40;;;;;;20569673;28;20290;-74
2022/04/24 23:09:51;;;;;;;1.75;0.90;;;14.00;62.50;;;;;;20568725;28;20507;-73
2022/04/24 23:19:52;;;;;;;1.10;0.70;;;13.90;62.50;;;;;;20566433;28;20061;-73
2022/04/24 23:29:53;;;;;;;1.90;0.85;;;13.90;62.50;;;;;;20567690;28;20062;-75
2022/04/24 23:39:54;;;;;;;1.33;1.00;;;13.90;62.50;;;;;;20565715;28;20077;-74
2022/04/24 23:49:54;;;;;;;1.10;0.65;;;13.90;62.50;;;;;;20565541;28;20130;-74
2022/04/24 23:59:55;;;;;;;1.60;1.08;;;13.90;62.50;;;;;;20565946;28;20651;-75
